<?xml version="1.0" encoding="UTF-8" standalone="no" ?>
<gpx xmlns="http://www.topografix.com/GPX/1/1" xmlns:xsi="http://www.w3.org/2001/XMLSchema-instance" xsi:schemaLocation="http://www.topografix.com/GPX/1/1 http://www.topografix.com/GPX/1/1/gpx.xsd" version="1.1" creator="VisuGPX - https://www.visugpx.com">
  <metadata>
    <name>2024 05 22 Parcours Total 2024</name>
  </metadata>
  <trk>
    <name><![CDATA[BR Bonus]]></name>
    <extensions>
      <line xmlns="http://www.topografix.com/GPX/gpx_style/0/2">
        <color>ffbc00</color>
        <width>4</width>
      </line>
    </extensions>
    <trkseg>
      <trkpt lat="48.12612" lon="3.31798">
        <ele>115.9</ele>
        <extensions>
          <visugpx:TrkExtension xmlns:visugpx="https://www.visugpx.com/editgpx/">
            <visugpx:node>2</visugpx:node>
            </visugpx:TrkExtension>
        </extensions>
      </trkpt>
      <trkpt lat="48.12597" lon="3.31856">
        <ele>114.4</ele>
      </trkpt>
      <trkpt lat="48.12591" lon="3.31886">
        <ele>113.6</ele>
      </trkpt>
      <trkpt lat="48.12594" lon="3.31922">
        <ele>114.1</ele>
      </trkpt>
      <trkpt lat="48.12593" lon="3.31923">
        <ele>113.9</ele>
        <time>2023-11-18T08:47:24Z</time>
      </trkpt>
      <trkpt lat="48.12595" lon="3.31934">
        <ele>113.9</ele>
        <time>2023-11-18T08:47:29Z</time>
      </trkpt>
      <trkpt lat="48.12599" lon="3.31964">
        <ele>113.7</ele>
        <time>2023-11-18T08:47:36Z</time>
      </trkpt>
      <trkpt lat="48.12607" lon="3.32014">
        <ele>113.5</ele>
        <time>2023-11-18T08:47:44Z</time>
      </trkpt>
      <trkpt lat="48.12613" lon="3.32055">
        <ele>114.5</ele>
        <time>2023-11-18T08:47:51Z</time>
      </trkpt>
      <trkpt lat="48.12617" lon="3.32089">
        <ele>115.5</ele>
        <time>2023-11-18T08:47:59Z</time>
      </trkpt>
      <trkpt lat="48.12621" lon="3.32134">
        <ele>115.7</ele>
        <time>2023-11-18T08:48:09Z</time>
      </trkpt>
      <trkpt lat="48.12626" lon="3.32177">
        <ele>116.6</ele>
        <time>2023-11-18T08:48:18Z</time>
      </trkpt>
      <trkpt lat="48.12628" lon="3.32195">
        <ele>116.9</ele>
        <time>2023-11-18T08:48:23Z</time>
      </trkpt>
      <trkpt lat="48.12631" lon="3.32224">
        <ele>118.1</ele>
        <time>2023-11-18T08:48:32Z</time>
      </trkpt>
      <trkpt lat="48.12633" lon="3.3225">
        <ele>119.5</ele>
        <time>2023-11-18T08:48:42Z</time>
      </trkpt>
      <trkpt lat="48.12633" lon="3.32257">
        <ele>119.8</ele>
        <time>2023-11-18T08:48:44Z</time>
      </trkpt>
      <trkpt lat="48.12635" lon="3.3227">
        <ele>120.7</ele>
        <time>2023-11-18T08:49:26Z</time>
      </trkpt>
      <trkpt lat="48.12635" lon="3.32271">
        <ele>120.8</ele>
        <time>2023-11-18T08:50:22Z</time>
      </trkpt>
      <trkpt lat="48.12639" lon="3.32291">
        <ele>122</ele>
        <time>2023-11-18T08:50:33Z</time>
      </trkpt>
      <trkpt lat="48.12645" lon="3.32309">
        <ele>123.2</ele>
        <time>2023-11-18T08:50:42Z</time>
      </trkpt>
      <trkpt lat="48.12653" lon="3.32326">
        <ele>124.3</ele>
        <time>2023-11-18T08:50:50Z</time>
      </trkpt>
      <trkpt lat="48.1266" lon="3.32341">
        <ele>125</ele>
        <time>2023-11-18T08:50:58Z</time>
      </trkpt>
      <trkpt lat="48.12669" lon="3.3236">
        <ele>125.7</ele>
        <time>2023-11-18T08:51:07Z</time>
      </trkpt>
      <trkpt lat="48.12673" lon="3.32366">
        <ele>126.2</ele>
        <time>2023-11-18T08:51:10Z</time>
      </trkpt>
      <trkpt lat="48.12676" lon="3.32371">
        <ele>126.5</ele>
        <time>2023-11-18T08:51:13Z</time>
      </trkpt>
      <trkpt lat="48.12678" lon="3.32374">
        <ele>126.7</ele>
        <time>2023-11-18T08:51:17Z</time>
      </trkpt>
      <trkpt lat="48.12681" lon="3.32384">
        <ele>126.5</ele>
        <time>2023-11-18T08:51:21Z</time>
      </trkpt>
      <trkpt lat="48.12689" lon="3.32411">
        <ele>126.2</ele>
        <time>2023-11-18T08:51:29Z</time>
      </trkpt>
      <trkpt lat="48.12699" lon="3.3244">
        <ele>125.6</ele>
        <time>2023-11-18T08:51:38Z</time>
      </trkpt>
      <trkpt lat="48.12707" lon="3.32462">
        <ele>125.9</ele>
        <time>2023-11-18T08:51:44Z</time>
      </trkpt>
      <trkpt lat="48.12717" lon="3.32487">
        <ele>126.1</ele>
        <time>2023-11-18T08:51:52Z</time>
      </trkpt>
      <trkpt lat="48.12726" lon="3.32511">
        <ele>126.1</ele>
        <time>2023-11-18T08:51:58Z</time>
      </trkpt>
      <trkpt lat="48.12734" lon="3.32541">
        <ele>124.8</ele>
        <time>2023-11-18T08:52:04Z</time>
      </trkpt>
      <trkpt lat="48.12742" lon="3.32567">
        <ele>123.9</ele>
        <time>2023-11-18T08:52:08Z</time>
      </trkpt>
      <trkpt lat="48.1275" lon="3.326">
        <ele>122.8</ele>
        <time>2023-11-18T08:52:13Z</time>
      </trkpt>
      <trkpt lat="48.12761" lon="3.32653">
        <ele>121</ele>
        <time>2023-11-18T08:52:20Z</time>
      </trkpt>
      <trkpt lat="48.12774" lon="3.32717">
        <ele>118.8</ele>
        <time>2023-11-18T08:52:29Z</time>
      </trkpt>
      <trkpt lat="48.12786" lon="3.32779">
        <ele>114.8</ele>
        <time>2023-11-18T08:52:37Z</time>
      </trkpt>
      <trkpt lat="48.12792" lon="3.32807">
        <ele>113.5</ele>
        <time>2023-11-18T08:52:41Z</time>
      </trkpt>
      <trkpt lat="48.12794" lon="3.32821">
        <ele>112.9</ele>
        <time>2023-11-18T08:52:46Z</time>
      </trkpt>
      <trkpt lat="48.12795" lon="3.32828">
        <ele>112.6</ele>
      </trkpt>
      <trkpt lat="48.12802" lon="3.32828">
        <ele>113.1</ele>
        <time>2023-11-18T08:52:51Z</time>
      </trkpt>
      <trkpt lat="48.12807" lon="3.32825">
        <ele>113.7</ele>
        <time>2023-11-18T08:52:54Z</time>
      </trkpt>
      <trkpt lat="48.12811" lon="3.32822">
        <ele>114.3</ele>
        <time>2023-11-18T08:52:58Z</time>
      </trkpt>
      <trkpt lat="48.12824" lon="3.32818">
        <ele>115.7</ele>
        <time>2023-11-18T08:53:07Z</time>
      </trkpt>
      <trkpt lat="48.12834" lon="3.32815">
        <ele>116.7</ele>
        <time>2023-11-18T08:53:15Z</time>
      </trkpt>
      <trkpt lat="48.12843" lon="3.32809">
        <ele>118</ele>
        <time>2023-11-18T08:53:21Z</time>
      </trkpt>
      <trkpt lat="48.12854" lon="3.32802">
        <ele>119.5</ele>
        <time>2023-11-18T08:53:29Z</time>
      </trkpt>
      <trkpt lat="48.12861" lon="3.32798">
        <ele>120.5</ele>
        <time>2023-11-18T08:53:34Z</time>
      </trkpt>
      <trkpt lat="48.12874" lon="3.32793">
        <ele>122.8</ele>
        <time>2023-11-18T08:53:43Z</time>
      </trkpt>
      <trkpt lat="48.12882" lon="3.32789">
        <ele>124.1</ele>
        <time>2023-11-18T08:53:49Z</time>
      </trkpt>
      <trkpt lat="48.12902" lon="3.32774">
        <ele>127.5</ele>
        <time>2023-11-18T08:54:05Z</time>
      </trkpt>
      <trkpt lat="48.12932" lon="3.32761">
        <ele>132.6</ele>
        <time>2023-11-18T08:54:42Z</time>
      </trkpt>
      <trkpt lat="48.12946" lon="3.32751">
        <ele>134.4</ele>
        <time>2023-11-18T08:54:59Z</time>
      </trkpt>
      <trkpt lat="48.12957" lon="3.32746">
        <ele>136.5</ele>
        <time>2023-11-18T08:55:14Z</time>
      </trkpt>
      <trkpt lat="48.12968" lon="3.32743">
        <ele>138.5</ele>
        <time>2023-11-18T08:55:20Z</time>
      </trkpt>
      <trkpt lat="48.12978" lon="3.32736">
        <ele>140.2</ele>
        <time>2023-11-18T08:55:28Z</time>
      </trkpt>
      <trkpt lat="48.12989" lon="3.32731">
        <ele>141.7</ele>
        <time>2023-11-18T08:55:35Z</time>
      </trkpt>
      <trkpt lat="48.12998" lon="3.3273">
        <ele>142.8</ele>
        <time>2023-11-18T08:55:42Z</time>
      </trkpt>
      <trkpt lat="48.13005" lon="3.32733">
        <ele>143.7</ele>
        <time>2023-11-18T08:55:49Z</time>
      </trkpt>
      <trkpt lat="48.1301" lon="3.32733">
        <ele>144.3</ele>
        <time>2023-11-18T08:55:51Z</time>
      </trkpt>
      <trkpt lat="48.1302" lon="3.32741">
        <ele>145.4</ele>
        <time>2023-11-18T08:56:00Z</time>
      </trkpt>
      <trkpt lat="48.13029" lon="3.32742">
        <ele>146.4</ele>
      </trkpt>
      <trkpt lat="48.13039" lon="3.32748">
        <ele>147.3</ele>
        <time>2023-11-18T08:56:15Z</time>
      </trkpt>
      <trkpt lat="48.13045" lon="3.32751">
        <ele>147.9</ele>
        <time>2023-11-18T08:56:22Z</time>
      </trkpt>
      <trkpt lat="48.1305" lon="3.32755">
        <ele>148.5</ele>
        <time>2023-11-18T08:56:27Z</time>
      </trkpt>
      <trkpt lat="48.13061" lon="3.32762">
        <ele>149.5</ele>
        <time>2023-11-18T08:56:35Z</time>
      </trkpt>
      <trkpt lat="48.1307" lon="3.32767">
        <ele>150.2</ele>
        <time>2023-11-18T08:56:43Z</time>
      </trkpt>
      <trkpt lat="48.1308" lon="3.32773">
        <ele>150.9</ele>
        <time>2023-11-18T08:56:51Z</time>
      </trkpt>
      <trkpt lat="48.1309" lon="3.32783">
        <ele>151.6</ele>
        <time>2023-11-18T08:57:00Z</time>
      </trkpt>
      <trkpt lat="48.13096" lon="3.32789">
        <ele>152.1</ele>
        <time>2023-11-18T08:57:07Z</time>
      </trkpt>
      <trkpt lat="48.13102" lon="3.32798">
        <ele>152.6</ele>
        <time>2023-11-18T08:57:14Z</time>
      </trkpt>
      <trkpt lat="48.13105" lon="3.32801">
        <ele>152.7</ele>
        <time>2023-11-18T08:57:16Z</time>
      </trkpt>
      <trkpt lat="48.1311" lon="3.32807">
        <ele>153</ele>
        <time>2023-11-18T08:57:24Z</time>
      </trkpt>
      <trkpt lat="48.13112" lon="3.32811">
        <ele>153.3</ele>
        <time>2023-11-18T08:57:55Z</time>
      </trkpt>
      <trkpt lat="48.13122" lon="3.32821">
        <ele>154.1</ele>
      </trkpt>
      <trkpt lat="48.13128" lon="3.32824">
        <ele>154.5</ele>
        <time>2023-11-18T08:58:02Z</time>
      </trkpt>
      <trkpt lat="48.13131" lon="3.32825">
        <ele>154.6</ele>
        <time>2023-11-18T08:58:04Z</time>
      </trkpt>
      <trkpt lat="48.13133" lon="3.32826">
        <ele>154.7</ele>
        <time>2023-11-18T08:58:07Z</time>
      </trkpt>
      <trkpt lat="48.13134" lon="3.32831">
        <ele>154.8</ele>
        <time>2023-11-18T08:58:10Z</time>
      </trkpt>
      <trkpt lat="48.13134" lon="3.32834">
        <ele>154.9</ele>
        <time>2023-11-18T08:58:33Z</time>
      </trkpt>
      <trkpt lat="48.13138" lon="3.32845">
        <ele>155.4</ele>
        <time>2023-11-18T08:58:39Z</time>
      </trkpt>
      <trkpt lat="48.13139" lon="3.32849">
        <ele>155.6</ele>
        <time>2023-11-18T08:58:47Z</time>
      </trkpt>
      <trkpt lat="48.1314" lon="3.32853">
        <ele>155.8</ele>
      </trkpt>
      <trkpt lat="48.13143" lon="3.32855">
        <ele>156</ele>
        <time>2023-11-18T08:59:16Z</time>
      </trkpt>
      <trkpt lat="48.13147" lon="3.32856">
        <ele>156.2</ele>
        <time>2023-11-18T08:59:24Z</time>
      </trkpt>
      <trkpt lat="48.13152" lon="3.32859">
        <ele>156.4</ele>
        <time>2023-11-18T08:59:45Z</time>
      </trkpt>
      <trkpt lat="48.13156" lon="3.32862">
        <ele>156.7</ele>
        <time>2023-11-18T08:59:51Z</time>
      </trkpt>
      <trkpt lat="48.13157" lon="3.32869">
        <ele>157.2</ele>
        <time>2023-11-18T08:59:58Z</time>
      </trkpt>
      <trkpt lat="48.13158" lon="3.32873">
        <ele>157.5</ele>
        <time>2023-11-18T09:00:05Z</time>
      </trkpt>
      <trkpt lat="48.13157" lon="3.32879">
        <ele>157.9</ele>
      </trkpt>
      <trkpt lat="48.13157" lon="3.32882">
        <ele>158.2</ele>
        <time>2023-11-18T09:01:31Z</time>
      </trkpt>
      <trkpt lat="48.13157" lon="3.32889">
        <ele>158.7</ele>
      </trkpt>
      <trkpt lat="48.13158" lon="3.32893">
        <ele>158.9</ele>
        <time>2023-11-18T09:02:05Z</time>
      </trkpt>
      <trkpt lat="48.13164" lon="3.32906">
        <ele>159.6</ele>
        <time>2023-11-18T09:02:16Z</time>
      </trkpt>
      <trkpt lat="48.13169" lon="3.32917">
        <ele>160.1</ele>
        <time>2023-11-18T09:02:23Z</time>
      </trkpt>
      <trkpt lat="48.1317" lon="3.32919">
        <ele>160.2</ele>
        <time>2023-11-18T09:02:24Z</time>
      </trkpt>
      <trkpt lat="48.13172" lon="3.32926">
        <ele>160.5</ele>
      </trkpt>
      <trkpt lat="48.13178" lon="3.32922">
        <ele>160.6</ele>
      </trkpt>
      <trkpt lat="48.13202" lon="3.32934">
        <ele>162.4</ele>
      </trkpt>
      <trkpt lat="48.13225" lon="3.32968">
        <ele>166.1</ele>
      </trkpt>
      <trkpt lat="48.13258" lon="3.33041">
        <ele>170.9</ele>
        <time>2023-11-18T09:02:32Z</time>
      </trkpt>
      <trkpt lat="48.13258" lon="3.33041">
        <ele>170.9</ele>
        <time>2023-11-18T09:38:34Z</time>
      </trkpt>
      <trkpt lat="48.13267" lon="3.33036">
        <ele>171.3</ele>
        <time>2023-11-18T09:39:02Z</time>
      </trkpt>
      <trkpt lat="48.13276" lon="3.33027">
        <ele>171.8</ele>
        <time>2023-11-18T09:39:10Z</time>
      </trkpt>
      <trkpt lat="48.13278" lon="3.33026">
        <ele>171.9</ele>
        <time>2023-11-18T09:39:12Z</time>
      </trkpt>
      <trkpt lat="48.1328" lon="3.33022">
        <ele>171.9</ele>
        <time>2023-11-18T09:39:15Z</time>
      </trkpt>
      <trkpt lat="48.13297" lon="3.3299">
        <ele>172.4</ele>
        <time>2023-11-18T09:39:34Z</time>
      </trkpt>
      <trkpt lat="48.13299" lon="3.3298">
        <ele>172.5</ele>
      </trkpt>
      <trkpt lat="48.13299" lon="3.32966">
        <ele>172.5</ele>
      </trkpt>
      <trkpt lat="48.13315" lon="3.32955">
        <ele>173.5</ele>
      </trkpt>
      <trkpt lat="48.1332" lon="3.3295">
        <ele>173.6</ele>
      </trkpt>
      <trkpt lat="48.13324" lon="3.32948">
        <ele>173.7</ele>
        <time>2023-11-18T09:39:50Z</time>
      </trkpt>
      <trkpt lat="48.1333" lon="3.32943">
        <ele>173.9</ele>
        <time>2023-11-18T09:39:52Z</time>
      </trkpt>
      <trkpt lat="48.13343" lon="3.32925">
        <ele>174.5</ele>
        <time>2023-11-18T09:40:00Z</time>
      </trkpt>
      <trkpt lat="48.13355" lon="3.32912">
        <ele>174.7</ele>
      </trkpt>
      <trkpt lat="48.13347" lon="3.32895">
        <ele>174.1</ele>
        <time>2023-11-18T09:40:13Z</time>
      </trkpt>
      <trkpt lat="48.13338" lon="3.3287">
        <ele>173.3</ele>
        <time>2023-11-18T09:40:20Z</time>
      </trkpt>
      <trkpt lat="48.13331" lon="3.32853">
        <ele>172.8</ele>
        <time>2023-11-18T09:40:23Z</time>
      </trkpt>
      <trkpt lat="48.13318" lon="3.32826">
        <ele>171.9</ele>
        <time>2023-11-18T09:40:30Z</time>
      </trkpt>
      <trkpt lat="48.13308" lon="3.32808">
        <ele>171.2</ele>
        <time>2023-11-18T09:40:36Z</time>
      </trkpt>
      <trkpt lat="48.13297" lon="3.32788">
        <ele>171</ele>
      </trkpt>
      <trkpt lat="48.13277" lon="3.32766">
        <ele>170.4</ele>
        <time>2023-11-18T09:40:49Z</time>
      </trkpt>
      <trkpt lat="48.13247" lon="3.32733">
        <ele>170</ele>
        <time>2023-11-18T09:41:03Z</time>
      </trkpt>
      <trkpt lat="48.13237" lon="3.32709">
        <ele>170.5</ele>
        <time>2023-11-18T09:41:09Z</time>
      </trkpt>
      <trkpt lat="48.13226" lon="3.32684">
        <ele>170.6</ele>
        <time>2023-11-18T09:41:17Z</time>
      </trkpt>
      <trkpt lat="48.1321" lon="3.32647">
        <ele>171.1</ele>
        <time>2023-11-18T09:41:25Z</time>
      </trkpt>
      <trkpt lat="48.13206" lon="3.32639">
        <ele>171.4</ele>
        <time>2023-11-18T09:41:31Z</time>
      </trkpt>
      <trkpt lat="48.13168" lon="3.32591">
        <ele>172.5</ele>
        <time>2023-11-18T09:42:05Z</time>
      </trkpt>
      <trkpt lat="48.13149" lon="3.32561">
        <ele>172.5</ele>
        <time>2023-11-18T09:42:17Z</time>
      </trkpt>
      <trkpt lat="48.13106" lon="3.32496">
        <ele>172.7</ele>
        <time>2023-11-18T09:42:39Z</time>
      </trkpt>
      <trkpt lat="48.13092" lon="3.32474">
        <ele>172.3</ele>
        <time>2023-11-18T09:42:45Z</time>
      </trkpt>
      <trkpt lat="48.13076" lon="3.3245">
        <ele>172.7</ele>
        <time>2023-11-18T09:42:53Z</time>
      </trkpt>
      <trkpt lat="48.13033" lon="3.32338">
        <ele>172.8</ele>
        <time>2023-11-18T09:43:24Z</time>
      </trkpt>
      <trkpt lat="48.13019" lon="3.32299">
        <ele>172.1</ele>
        <time>2023-11-18T09:43:33Z</time>
      </trkpt>
      <trkpt lat="48.13005" lon="3.32262">
        <ele>171.3</ele>
        <time>2023-11-18T09:43:41Z</time>
      </trkpt>
      <trkpt lat="48.12993" lon="3.32234">
        <ele>170.7</ele>
        <time>2023-11-18T09:43:47Z</time>
      </trkpt>
      <trkpt lat="48.12986" lon="3.32216">
        <ele>170.4</ele>
      </trkpt>
      <trkpt lat="48.12983" lon="3.32206">
        <ele>170.4</ele>
      </trkpt>
      <trkpt lat="48.12979" lon="3.32197">
        <ele>170.5</ele>
        <time>2023-11-18T09:43:54Z</time>
      </trkpt>
      <trkpt lat="48.12964" lon="3.32158">
        <ele>169.3</ele>
        <time>2023-11-18T09:44:01Z</time>
      </trkpt>
      <trkpt lat="48.12963" lon="3.32139">
        <ele>168.7</ele>
        <time>2023-11-18T09:44:07Z</time>
      </trkpt>
      <trkpt lat="48.12962" lon="3.32117">
        <ele>167.2</ele>
        <time>2023-11-18T09:44:10Z</time>
      </trkpt>
      <trkpt lat="48.12962" lon="3.32098">
        <ele>166</ele>
        <time>2023-11-18T09:44:13Z</time>
      </trkpt>
      <trkpt lat="48.12959" lon="3.32041">
        <ele>162.4</ele>
        <time>2023-11-18T09:44:25Z</time>
      </trkpt>
      <trkpt lat="48.12957" lon="3.32011">
        <ele>160.4</ele>
        <time>2023-11-18T09:44:32Z</time>
      </trkpt>
      <trkpt lat="48.12955" lon="3.3201">
        <ele>160.6</ele>
        <time>2023-11-18T12:03:16.182Z</time>
      </trkpt>
      <trkpt lat="48.12953" lon="3.32009">
        <ele>160.7</ele>
        <time>2023-11-18T12:03:17.855Z</time>
      </trkpt>
      <trkpt lat="48.12952" lon="3.32007">
        <ele>160.7</ele>
        <time>2023-11-18T12:03:19.528Z</time>
      </trkpt>
      <trkpt lat="48.1295" lon="3.32007">
        <ele>160.9</ele>
        <time>2023-11-18T12:03:21.202Z</time>
      </trkpt>
      <trkpt lat="48.12949" lon="3.32006">
        <ele>160.9</ele>
        <time>2023-11-18T12:03:22.876Z</time>
      </trkpt>
      <trkpt lat="48.12947" lon="3.32005">
        <ele>161.1</ele>
        <time>2023-11-18T12:03:24.550Z</time>
      </trkpt>
      <trkpt lat="48.12935" lon="3.31999">
        <ele>161.9</ele>
        <time>2023-11-18T12:03:26.227Z</time>
      </trkpt>
      <trkpt lat="48.12929" lon="3.31994">
        <ele>162.1</ele>
        <time>2023-11-18T12:03:27.905Z</time>
      </trkpt>
      <trkpt lat="48.12927" lon="3.31993">
        <ele>162.2</ele>
        <time>2023-11-18T12:03:29.584Z</time>
      </trkpt>
      <trkpt lat="48.12925" lon="3.31991">
        <ele>162.2</ele>
        <time>2023-11-18T12:03:31.263Z</time>
      </trkpt>
      <trkpt lat="48.12923" lon="3.31991">
        <ele>162.4</ele>
        <time>2023-11-18T12:03:32.943Z</time>
      </trkpt>
      <trkpt lat="48.12922" lon="3.3199">
        <ele>162.4</ele>
        <time>2023-11-18T12:03:34.623Z</time>
      </trkpt>
      <trkpt lat="48.12921" lon="3.31989">
        <ele>162.4</ele>
        <time>2023-11-18T12:03:36.303Z</time>
      </trkpt>
      <trkpt lat="48.1292" lon="3.31989">
        <ele>162.5</ele>
        <time>2023-11-18T12:03:37.983Z</time>
      </trkpt>
      <trkpt lat="48.12916" lon="3.31988">
        <ele>162.8</ele>
        <time>2023-11-18T12:03:39.664Z</time>
      </trkpt>
      <trkpt lat="48.12913" lon="3.31987">
        <ele>162.9</ele>
        <time>2023-11-18T12:03:41.346Z</time>
      </trkpt>
      <trkpt lat="48.1291" lon="3.31986">
        <ele>163.1</ele>
        <time>2023-11-18T12:03:43.028Z</time>
      </trkpt>
      <trkpt lat="48.12907" lon="3.31985">
        <ele>163.3</ele>
        <time>2023-11-18T12:03:44.711Z</time>
      </trkpt>
      <trkpt lat="48.12905" lon="3.31984">
        <ele>163.4</ele>
        <time>2023-11-18T12:03:46.394Z</time>
      </trkpt>
      <trkpt lat="48.12902" lon="3.31984">
        <ele>163.6</ele>
        <time>2023-11-18T12:03:48.078Z</time>
      </trkpt>
      <trkpt lat="48.129" lon="3.31984">
        <ele>163.8</ele>
        <time>2023-11-18T12:03:49.762Z</time>
      </trkpt>
      <trkpt lat="48.12898" lon="3.31982">
        <ele>163.8</ele>
        <time>2023-11-18T12:03:51.447Z</time>
      </trkpt>
      <trkpt lat="48.12897" lon="3.31982">
        <ele>163.9</ele>
        <time>2023-11-18T12:03:53.132Z</time>
      </trkpt>
      <trkpt lat="48.12896" lon="3.31981">
        <ele>163.9</ele>
        <time>2023-11-18T12:03:54.817Z</time>
      </trkpt>
      <trkpt lat="48.12893" lon="3.31979">
        <ele>164.1</ele>
        <time>2023-11-18T12:03:56.503Z</time>
      </trkpt>
      <trkpt lat="48.12892" lon="3.31979">
        <ele>164.2</ele>
        <time>2023-11-18T12:03:58.189Z</time>
      </trkpt>
      <trkpt lat="48.1289" lon="3.31978">
        <ele>164.3</ele>
        <time>2023-11-18T12:03:59.875Z</time>
      </trkpt>
      <trkpt lat="48.12888" lon="3.31977">
        <ele>164.3</ele>
        <time>2023-11-18T12:04:01.562Z</time>
      </trkpt>
      <trkpt lat="48.12886" lon="3.31975">
        <ele>164.2</ele>
        <time>2023-11-18T12:04:03.249Z</time>
      </trkpt>
      <trkpt lat="48.12876" lon="3.31972">
        <ele>164</ele>
        <time>2023-11-18T12:04:04.938Z</time>
      </trkpt>
      <trkpt lat="48.12872" lon="3.3197">
        <ele>163.8</ele>
        <time>2023-11-18T12:04:06.628Z</time>
      </trkpt>
      <trkpt lat="48.12864" lon="3.31969">
        <ele>163.8</ele>
        <time>2023-11-18T12:04:08.320Z</time>
      </trkpt>
      <trkpt lat="48.12862" lon="3.3197">
        <ele>163.8</ele>
        <time>2023-11-18T12:04:10.012Z</time>
      </trkpt>
      <trkpt lat="48.1286" lon="3.3197">
        <ele>163.8</ele>
        <time>2023-11-18T12:04:11.705Z</time>
      </trkpt>
      <trkpt lat="48.12857" lon="3.3197">
        <ele>163.7</ele>
        <time>2023-11-18T12:04:13.398Z</time>
      </trkpt>
      <trkpt lat="48.12856" lon="3.31969">
        <ele>163.6</ele>
        <time>2023-11-18T12:04:15.091Z</time>
      </trkpt>
      <trkpt lat="48.12854" lon="3.31968">
        <ele>163.4</ele>
        <time>2023-11-18T12:04:16.785Z</time>
      </trkpt>
      <trkpt lat="48.12853" lon="3.31968">
        <ele>163.4</ele>
        <time>2023-11-18T12:04:18.479Z</time>
      </trkpt>
      <trkpt lat="48.12851" lon="3.31968">
        <ele>163.3</ele>
        <time>2023-11-18T12:04:20.173Z</time>
      </trkpt>
      <trkpt lat="48.12849" lon="3.31967">
        <ele>163.2</ele>
        <time>2023-11-18T12:04:21.868Z</time>
      </trkpt>
      <trkpt lat="48.12848" lon="3.31968">
        <ele>163.2</ele>
        <time>2023-11-18T12:04:23.563Z</time>
      </trkpt>
      <trkpt lat="48.12846" lon="3.31968">
        <ele>163.2</ele>
        <time>2023-11-18T12:04:25.259Z</time>
      </trkpt>
      <trkpt lat="48.12843" lon="3.31967">
        <ele>163</ele>
        <time>2023-11-18T12:04:26.955Z</time>
      </trkpt>
      <trkpt lat="48.12841" lon="3.31967">
        <ele>162.9</ele>
        <time>2023-11-18T12:04:28.652Z</time>
      </trkpt>
      <trkpt lat="48.1284" lon="3.31968">
        <ele>162.9</ele>
        <time>2023-11-18T12:04:30.349Z</time>
      </trkpt>
      <trkpt lat="48.12836" lon="3.31969">
        <ele>162.9</ele>
        <time>2023-11-18T12:04:32.046Z</time>
      </trkpt>
      <trkpt lat="48.12832" lon="3.3197">
        <ele>162.7</ele>
        <time>2023-11-18T12:04:33.744Z</time>
      </trkpt>
      <trkpt lat="48.12829" lon="3.31968">
        <ele>162.1</ele>
        <time>2023-11-18T12:04:35.443Z</time>
      </trkpt>
      <trkpt lat="48.12828" lon="3.31966">
        <ele>161.8</ele>
        <time>2023-11-18T12:04:37.142Z</time>
      </trkpt>
      <trkpt lat="48.12828" lon="3.31964">
        <ele>161.7</ele>
        <time>2023-11-18T12:04:38.842Z</time>
      </trkpt>
      <trkpt lat="48.12828" lon="3.31963">
        <ele>161.6</ele>
        <time>2023-11-18T12:04:40.542Z</time>
      </trkpt>
      <trkpt lat="48.12827" lon="3.3196">
        <ele>161.3</ele>
        <time>2023-11-18T12:04:42.242Z</time>
      </trkpt>
      <trkpt lat="48.12826" lon="3.3196">
        <ele>161.2</ele>
        <time>2023-11-18T12:04:43.942Z</time>
      </trkpt>
      <trkpt lat="48.12826" lon="3.31958">
        <ele>161.1</ele>
        <time>2023-11-18T12:04:45.643Z</time>
      </trkpt>
      <trkpt lat="48.12826" lon="3.31957">
        <ele>161</ele>
        <time>2023-11-18T12:04:47.344Z</time>
      </trkpt>
      <trkpt lat="48.12826" lon="3.31955">
        <ele>160.9</ele>
        <time>2023-11-18T12:04:49.045Z</time>
      </trkpt>
      <trkpt lat="48.12826" lon="3.31953">
        <ele>160.7</ele>
        <time>2023-11-18T12:04:50.746Z</time>
      </trkpt>
      <trkpt lat="48.12825" lon="3.31951">
        <ele>160.5</ele>
        <time>2023-11-18T12:04:52.448Z</time>
      </trkpt>
      <trkpt lat="48.12825" lon="3.3195">
        <ele>160.4</ele>
        <time>2023-11-18T12:04:54.150Z</time>
      </trkpt>
      <trkpt lat="48.12824" lon="3.31948">
        <ele>160.2</ele>
        <time>2023-11-18T12:04:55.852Z</time>
      </trkpt>
      <trkpt lat="48.12823" lon="3.31947">
        <ele>160</ele>
        <time>2023-11-18T12:04:57.554Z</time>
      </trkpt>
      <trkpt lat="48.12822" lon="3.31946">
        <ele>159.9</ele>
        <time>2023-11-18T12:04:59.256Z</time>
      </trkpt>
      <trkpt lat="48.12821" lon="3.31946">
        <ele>159.8</ele>
        <time>2023-11-18T12:05:00.959Z</time>
      </trkpt>
      <trkpt lat="48.12821" lon="3.31945">
        <ele>159.7</ele>
        <time>2023-11-18T12:05:02.662Z</time>
      </trkpt>
      <trkpt lat="48.1282" lon="3.31945">
        <ele>159.6</ele>
        <time>2023-11-18T12:05:04.365Z</time>
      </trkpt>
      <trkpt lat="48.12818" lon="3.31943">
        <ele>159.2</ele>
        <time>2023-11-18T12:05:06.068Z</time>
      </trkpt>
      <trkpt lat="48.12816" lon="3.31942">
        <ele>159</ele>
        <time>2023-11-18T12:05:07.772Z</time>
      </trkpt>
      <trkpt lat="48.12814" lon="3.3194">
        <ele>158.6</ele>
        <time>2023-11-18T12:05:09.476Z</time>
      </trkpt>
      <trkpt lat="48.12813" lon="3.31939">
        <ele>158.4</ele>
        <time>2023-11-18T12:05:11.181Z</time>
      </trkpt>
      <trkpt lat="48.12811" lon="3.31938">
        <ele>158.1</ele>
        <time>2023-11-18T12:05:12.886Z</time>
      </trkpt>
      <trkpt lat="48.12809" lon="3.31935">
        <ele>157.7</ele>
        <time>2023-11-18T12:05:14.591Z</time>
      </trkpt>
      <trkpt lat="48.12809" lon="3.31932">
        <ele>157.5</ele>
        <time>2023-11-18T12:05:16.297Z</time>
      </trkpt>
      <trkpt lat="48.12808" lon="3.31929">
        <ele>157.2</ele>
        <time>2023-11-18T12:05:18.003Z</time>
      </trkpt>
      <trkpt lat="48.12808" lon="3.31928">
        <ele>157.1</ele>
        <time>2023-11-18T12:05:19.709Z</time>
      </trkpt>
      <trkpt lat="48.12807" lon="3.31926">
        <ele>156.8</ele>
        <time>2023-11-18T12:05:21.416Z</time>
      </trkpt>
      <trkpt lat="48.12806" lon="3.31924">
        <ele>156.6</ele>
        <time>2023-11-18T12:05:23.123Z</time>
      </trkpt>
      <trkpt lat="48.12806" lon="3.31922">
        <ele>156.4</ele>
        <time>2023-11-18T12:05:24.830Z</time>
      </trkpt>
      <trkpt lat="48.12806" lon="3.3192">
        <ele>156.3</ele>
        <time>2023-11-18T12:05:26.538Z</time>
      </trkpt>
      <trkpt lat="48.12806" lon="3.31918">
        <ele>156.1</ele>
        <time>2023-11-18T12:05:28.246Z</time>
      </trkpt>
      <trkpt lat="48.12806" lon="3.31916">
        <ele>156</ele>
        <time>2023-11-18T12:05:29.954Z</time>
      </trkpt>
      <trkpt lat="48.12806" lon="3.31913">
        <ele>156</ele>
        <time>2023-11-18T12:05:31.663Z</time>
      </trkpt>
      <trkpt lat="48.12805" lon="3.3191">
        <ele>155.9</ele>
        <time>2023-11-18T12:05:33.372Z</time>
      </trkpt>
      <trkpt lat="48.12803" lon="3.31903">
        <ele>155.8</ele>
        <time>2023-11-18T12:05:35.082Z</time>
        <extensions>
          <visugpx:TrkExtension xmlns:visugpx="https://www.visugpx.com/editgpx/">
            <visugpx:node>1</visugpx:node>
            </visugpx:TrkExtension>
        </extensions>
      </trkpt>
      <trkpt lat="48.12797" lon="3.31888">
        <ele>155.4</ele>
        <extensions>
          <visugpx:TrkExtension xmlns:visugpx="https://www.visugpx.com/editgpx/">
            <visugpx:node>3</visugpx:node>
            </visugpx:TrkExtension>
        </extensions>
      </trkpt>
    </trkseg>
  </trk>
</gpx>